sensor_id;sensor_type;location;lat;lon;timestamp;pressure;altitude;pressure_sealevel;temperature;humidity
48606;BME280;8482;54.396;18.590;2023-05-22T00:00:50;102097.66;;;13.50;62.78
48606;BME280;8482;54.396;18.590;2023-05-22T00:03:19;102092.63;;;13.45;63.64
48606;BME280;8482;54.396;18.590;2023-05-22T00:05:45;102096.94;;;13.48;63.53
48606;BME280;8482;54.396;18.590;2023-05-22T00:08:12;102096.25;;;13.44;63.47
48606;BME280;8482;54.396;18.590;2023-05-22T00:10:38;102096.38;;;13.43;63.74
48606;BME280;8482;54.396;18.590;2023-05-22T00:13:05;102096.69;;;13.38;64.37
48606;BME280;8482;54.396;18.590;2023-05-22T00:15:32;102083.88;;;13.30;64.22
48606;BME280;8482;54.396;18.590;2023-05-22T00:17:58;102088.56;;;13.27;64.41
48606;BME280;8482;54.396;18.590;2023-05-22T00:20:23;102095.81;;;13.25;64.00
48606;BME280;8482;54.396;18.590;2023-05-22T00:22:51;102078.84;;;13.13;64.33
48606;BME280;8482;54.396;18.590;2023-05-22T00:25:19;102093.69;;;13.17;64.55
48606;BME280;8482;54.396;18.590;2023-05-22T00:27:46;102088.88;;;13.09;64.74
48606;BME280;8482;54.396;18.590;2023-05-22T00:30:13;102095.16;;;13.08;64.86
48606;BME280;8482;54.396;18.590;2023-05-22T00:44:10;102087.44;;;12.91;65.83
48606;BME280;8482;54.396;18.590;2023-05-22T00:46:37;102080.53;;;12.88;65.58
48606;BME280;8482;54.396;18.590;2023-05-22T00:49:03;102085.97;;;12.86;66.30
48606;BME280;8482;54.396;18.590;2023-05-22T00:51:29;102074.97;;;12.78;66.35
48606;BME280;8482;54.396;18.590;2023-05-22T00:53:56;102084.47;;;12.82;66.14
48606;BME280;8482;54.396;18.590;2023-05-22T00:56:22;102088.28;;;12.78;66.35
48606;BME280;8482;54.396;18.590;2023-05-22T00:58:49;102077.94;;;12.73;66.45
48606;BME280;8482;54.396;18.590;2023-05-22T01:01:15;102078.06;;;12.72;66.58
48606;BME280;8482;54.396;18.590;2023-05-22T01:03:42;102076.16;;;12.74;67.02
48606;BME280;8482;54.396;18.590;2023-05-22T01:06:14;102070.38;;;12.67;66.85
48606;BME280;8482;54.396;18.590;2023-05-22T01:08:41;102083.78;;;12.66;67.09
48606;BME280;8482;54.396;18.590;2023-05-22T01:11:20;102071.66;;;12.62;67.13
48606;BME280;8482;54.396;18.590;2023-05-22T01:14:39;102072.78;;;12.57;67.55
48606;BME280;8482;54.396;18.590;2023-05-22T01:17:17;102075.44;;;12.57;67.78
48606;BME280;8482;54.396;18.590;2023-05-22T01:20:28;102075.66;;;12.54;67.51
48606;BME280;8482;54.396;18.590;2023-05-22T01:26:18;102074.16;;;12.50;67.78
48606;BME280;8482;54.396;18.590;2023-05-22T01:32:08;102075.31;;;12.46;68.43
48606;BME280;8482;54.396;18.590;2023-05-22T01:34:37;102073.72;;;12.44;68.48
48606;BME280;8482;54.396;18.590;2023-05-22T01:37:07;102077.22;;;12.44;68.70
48606;BME280;8482;54.396;18.590;2023-05-22T01:39:35;102071.06;;;12.44;68.83
48606;BME280;8482;54.396;18.590;2023-05-22T01:42:01;102074.56;;;12.44;69.28
48606;BME280;8482;54.396;18.590;2023-05-22T01:44:28;102075.63;;;12.41;69.59
48606;BME280;8482;54.396;18.590;2023-05-22T01:46:54;102081.03;;;12.40;69.19
48606;BME280;8482;54.396;18.590;2023-05-22T01:49:23;102074.94;;;12.38;69.36
48606;BME280;8482;54.396;18.590;2023-05-22T01:55:16;102068.34;;;12.31;69.43
48606;BME280;8482;54.396;18.590;2023-05-22T01:57:58;102066.44;;;12.33;69.73
48606;BME280;8482;54.396;18.590;2023-05-22T02:00:28;102075.38;;;12.32;69.91
48606;BME280;8482;54.396;18.590;2023-05-22T02:03:07;102071.84;;;12.31;69.87
48606;BME280;8482;54.396;18.590;2023-05-22T02:05:38;102078.97;;;12.31;70.17
48606;BME280;8482;54.396;18.590;2023-05-22T02:08:05;102073.00;;;12.27;70.29
48606;BME280;8482;54.396;18.590;2023-05-22T02:10:34;102076.63;;;12.26;70.35
48606;BME280;8482;54.396;18.590;2023-05-22T02:13:00;102068.72;;;12.24;70.41
48606;BME280;8482;54.396;18.590;2023-05-22T02:15:26;102069.47;;;12.26;70.24
48606;BME280;8482;54.396;18.590;2023-05-22T02:17:52;102072.38;;;12.23;70.03
48606;BME280;8482;54.396;18.590;2023-05-22T02:20:18;102068.84;;;12.23;70.32
48606;BME280;8482;54.396;18.590;2023-05-22T02:22:46;102066.38;;;12.20;70.48
48606;BME280;8482;54.396;18.590;2023-05-22T02:25:14;102072.38;;;12.23;70.28
48606;BME280;8482;54.396;18.590;2023-05-22T02:27:43;102061.72;;;12.23;70.61
48606;BME280;8482;54.396;18.590;2023-05-22T02:30:13;102071.50;;;12.23;70.81
48606;BME280;8482;54.396;18.590;2023-05-22T02:32:40;102068.06;;;12.21;70.65
48606;BME280;8482;54.396;18.590;2023-05-22T02:35:08;102053.94;;;12.20;71.09
48606;BME280;8482;54.396;18.590;2023-05-22T02:37:34;102063.50;;;12.23;70.78
48606;BME280;8482;54.396;18.590;2023-05-22T02:40:00;102064.47;;;12.22;71.25
48606;BME280;8482;54.396;18.590;2023-05-22T02:42:26;102053.19;;;12.18;70.79
48606;BME280;8482;54.396;18.590;2023-05-22T02:44:52;102057.63;;;12.18;71.18
48606;BME280;8482;54.396;18.590;2023-05-22T02:47:18;102060.19;;;12.19;71.35
48606;BME280;8482;54.396;18.590;2023-05-22T02:49:44;102058.59;;;12.17;71.53
48606;BME280;8482;54.396;18.590;2023-05-22T02:52:10;102063.81;;;12.18;71.66
48606;BME280;8482;54.396;18.590;2023-05-22T02:54:36;102054.25;;;12.16;71.78
48606;BME280;8482;54.396;18.590;2023-05-22T02:57:02;102063.81;;;12.18;71.45
48606;BME280;8482;54.396;18.590;2023-05-22T02:59:28;102055.94;;;12.17;71.84
48606;BME280;8482;54.396;18.590;2023-05-22T03:01:54;102050.63;;;12.17;71.96
48606;BME280;8482;54.396;18.590;2023-05-22T03:04:20;102055.94;;;12.17;71.94
48606;BME280;8482;54.396;18.590;2023-05-22T03:06:47;102056.97;;;12.14;72.18
48606;BME280;8482;54.396;18.590;2023-05-22T03:09:12;102056.66;;;12.19;71.95
48606;BME280;8482;54.396;18.590;2023-05-22T03:11:38;102052.53;;;12.15;71.98
48606;BME280;8482;54.396;18.590;2023-05-22T03:14:04;102057.63;;;12.18;71.99
48606;BME280;8482;54.396;18.590;2023-05-22T03:16:30;102055.72;;;12.20;72.28
48606;BME280;8482;54.396;18.590;2023-05-22T03:19:14;102045.19;;;12.18;72.49
48606;BME280;8482;54.396;18.590;2023-05-22T03:21:40;102046.97;;;12.18;72.81
48606;BME280;8482;54.396;18.590;2023-05-22T03:24:08;102055.84;;;12.18;72.67
48606;BME280;8482;54.396;18.590;2023-05-22T03:26:35;102049.56;;;12.19;72.82
48606;BME280;8482;54.396;18.590;2023-05-22T03:29:01;102039.88;;;12.18;73.38
48606;BME280;8482;54.396;18.590;2023-05-22T03:31:29;102055.22;;;12.27;73.20
48606;BME280;8482;54.396;18.590;2023-05-22T03:33:59;102043.44;;;12.32;73.23
48606;BME280;8482;54.396;18.590;2023-05-22T03:36:25;102043.25;;;12.35;73.16
48606;BME280;8482;54.396;18.590;2023-05-22T03:38:51;102046.53;;;12.38;72.96
48606;BME280;8482;54.396;18.590;2023-05-22T03:41:18;102042.81;;;12.41;72.97
48606;BME280;8482;54.396;18.590;2023-05-22T03:43:44;102043.56;;;12.43;73.03
48606;BME280;8482;54.396;18.590;2023-05-22T03:46:10;102040.59;;;12.48;72.81
48606;BME280;8482;54.396;18.590;2023-05-22T03:48:37;102045.63;;;12.52;73.04
48606;BME280;8482;54.396;18.590;2023-05-22T03:51:03;102046.28;;;12.56;72.83
48606;BME280;8482;54.396;18.590;2023-05-22T03:53:30;102040.66;;;12.61;73.17
48606;BME280;8482;54.396;18.590;2023-05-22T03:55:55;102044.78;;;12.65;73.06
48606;BME280;8482;54.396;18.590;2023-05-22T03:58:25;102049.72;;;12.71;73.05
48606;BME280;8482;54.396;18.590;2023-05-22T04:00:53;102041.41;;;12.76;72.95
48606;BME280;8482;54.396;18.590;2023-05-22T04:03:20;102040.25;;;12.80;72.62
48606;BME280;8482;54.396;18.590;2023-05-22T04:05:46;102038.25;;;12.83;73.18
48606;BME280;8482;54.396;18.590;2023-05-22T04:08:12;102034.50;;;12.86;73.31
48606;BME280;8482;54.396;18.590;2023-05-22T04:10:38;102041.00;;;12.95;73.21
48606;BME280;8482;54.396;18.590;2023-05-22T04:13:04;102043.34;;;12.99;72.83
48606;BME280;8482;54.396;18.590;2023-05-22T04:15:30;102040.50;;;13.02;72.75
48606;BME280;8482;54.396;18.590;2023-05-22T04:17:59;102032.19;;;13.07;72.75
48606;BME280;8482;54.396;18.590;2023-05-22T04:20:25;102031.00;;;13.11;72.74
48606;BME280;8482;54.396;18.590;2023-05-22T04:22:51;102036.56;;;13.21;72.37
48606;BME280;8482;54.396;18.590;2023-05-22T04:25:21;102037.00;;;13.28;72.47
48606;BME280;8482;54.396;18.590;2023-05-22T04:27:47;102036.66;;;13.32;72.55
48606;BME280;8482;54.396;18.590;2023-05-22T04:30:13;102032.72;;;13.38;71.87
48606;BME280;8482;54.396;18.590;2023-05-22T04:32:42;102024.41;;;13.43;71.74
48606;BME280;8482;54.396;18.590;2023-05-22T04:35:09;102023.13;;;13.48;71.53
48606;BME280;8482;54.396;18.590;2023-05-22T04:37:37;102022.78;;;13.53;72.19
48606;BME280;8482;54.396;18.590;2023-05-22T04:40:09;102026.50;;;13.63;71.53
48606;BME280;8482;54.396;18.590;2023-05-22T04:42:37;102017.31;;;13.68;70.79
48606;BME280;8482;54.396;18.590;2023-05-22T04:45:04;102015.81;;;13.76;71.01
48606;BME280;8482;54.396;18.590;2023-05-22T04:47:30;102013.78;;;13.80;69.99
48606;BME280;8482;54.396;18.590;2023-05-22T04:49:59;102021.00;;;13.91;69.78
48606;BME280;8482;54.396;18.590;2023-05-22T04:52:27;102011.81;;;13.95;69.33
48606;BME280;8482;54.396;18.590;2023-05-22T04:54:53;102029.69;;;14.06;69.15
48606;BME280;8482;54.396;18.590;2023-05-22T04:57:20;102022.94;;;14.13;68.64
48606;BME280;8482;54.396;18.590;2023-05-22T04:59:47;102024.19;;;14.20;68.22
48606;BME280;8482;54.396;18.590;2023-05-22T05:02:13;102026.41;;;14.27;67.98
48606;BME280;8482;54.396;18.590;2023-05-22T05:04:39;102025.84;;;14.34;67.46
48606;BME280;8482;54.396;18.590;2023-05-22T05:07:06;102021.13;;;14.38;67.12
48606;BME280;8482;54.396;18.590;2023-05-22T05:09:32;102024.91;;;14.47;66.59
48606;BME280;8482;54.396;18.590;2023-05-22T05:11:58;102019.09;;;14.53;66.44
48606;BME280;8482;54.396;18.590;2023-05-22T05:14:24;102020.34;;;14.60;66.38
48606;BME280;8482;54.396;18.590;2023-05-22T05:16:51;102019.88;;;14.66;65.92
48606;BME280;8482;54.396;18.590;2023-05-22T05:19:17;102018.47;;;14.74;65.63
48606;BME280;8482;54.396;18.590;2023-05-22T05:21:47;102018.97;;;14.79;65.28
48606;BME280;8482;54.396;18.590;2023-05-22T05:24:15;102022.13;;;14.84;65.30
48606;BME280;8482;54.396;18.590;2023-05-22T05:26:44;102015.69;;;14.86;65.13
48606;BME280;8482;54.396;18.590;2023-05-22T05:29:10;102021.31;;;14.95;65.33
48606;BME280;8482;54.396;18.590;2023-05-22T05:31:38;102014.75;;;14.99;65.42
48606;BME280;8482;54.396;18.590;2023-05-22T05:34:03;102015.13;;;15.06;64.62
48606;BME280;8482;54.396;18.590;2023-05-22T05:36:29;102015.50;;;15.12;64.59
48606;BME280;8482;54.396;18.590;2023-05-22T05:38:56;102014.28;;;15.16;64.32
48606;BME280;8482;54.396;18.590;2023-05-22T05:41:23;102006.88;;;15.20;64.08
48606;BME280;8482;54.396;18.590;2023-05-22T05:43:49;102011.00;;;15.24;64.09
48606;BME280;8482;54.396;18.590;2023-05-22T05:46:18;102011.25;;;15.32;64.26
48606;BME280;8482;54.396;18.590;2023-05-22T05:48:44;102016.84;;;15.41;64.18
48606;BME280;8482;54.396;18.590;2023-05-22T05:51:10;102019.75;;;15.49;64.05
48606;BME280;8482;54.396;18.590;2023-05-22T05:53:36;102014.91;;;15.54;63.36
48606;BME280;8482;54.396;18.590;2023-05-22T05:56:02;102014.53;;;15.59;62.64
48606;BME280;8482;54.396;18.590;2023-05-22T05:58:28;102015.13;;;15.62;62.17
48606;BME280;8482;54.396;18.590;2023-05-22T06:00:54;102001.63;;;15.64;62.32
48606;BME280;8482;54.396;18.590;2023-05-22T06:03:20;102010.50;;;15.76;62.67
48606;BME280;8482;54.396;18.590;2023-05-22T06:05:46;102004.63;;;15.82;62.52
48606;BME280;8482;54.396;18.590;2023-05-22T06:08:13;102010.25;;;15.90;62.90
48606;BME280;8482;54.396;18.590;2023-05-22T06:10:40;102003.53;;;15.96;62.67
48606;BME280;8482;54.396;18.590;2023-05-22T06:13:05;102008.25;;;16.04;62.56
48606;BME280;8482;54.396;18.590;2023-05-22T06:15:31;102002.53;;;16.08;62.59
48606;BME280;8482;54.396;18.590;2023-05-22T06:17:57;101988.75;;;16.13;62.76
48606;BME280;8482;54.396;18.590;2023-05-22T06:20:23;101998.09;;;16.19;62.77
48606;BME280;8482;54.396;18.590;2023-05-22T06:22:50;101993.09;;;16.26;62.05
48606;BME280;8482;54.396;18.590;2023-05-22T06:25:16;101991.13;;;16.28;61.93
48606;BME280;8482;54.396;18.590;2023-05-22T06:27:42;101987.81;;;16.35;61.92
48606;BME280;8482;54.396;18.590;2023-05-22T06:30:08;101993.38;;;16.44;61.92
48606;BME280;8482;54.396;18.590;2023-05-22T06:32:34;101992.00;;;16.49;61.88
48606;BME280;8482;54.396;18.590;2023-05-22T06:35:01;101988.81;;;16.55;62.07
48606;BME280;8482;54.396;18.590;2023-05-22T06:37:27;101985.72;;;16.60;61.96
48606;BME280;8482;54.396;18.590;2023-05-22T06:39:53;101983.38;;;16.67;61.86
48606;BME280;8482;54.396;18.590;2023-05-22T06:42:19;101987.22;;;16.74;61.66
48606;BME280;8482;54.396;18.590;2023-05-22T06:44:44;101979.66;;;16.79;61.00
48606;BME280;8482;54.396;18.590;2023-05-22T06:47:10;101974.16;;;16.81;60.94
48606;BME280;8482;54.396;18.590;2023-05-22T06:49:36;101981.53;;;16.89;60.77
48606;BME280;8482;54.396;18.590;2023-05-22T06:52:02;101975.06;;;16.91;60.90
48606;BME280;8482;54.396;18.590;2023-05-22T06:54:28;101976.13;;;17.00;60.82
48606;BME280;8482;54.396;18.590;2023-05-22T06:56:54;101979.13;;;17.07;61.22
48606;BME280;8482;54.396;18.590;2023-05-22T06:59:21;101978.44;;;17.14;60.87
48606;BME280;8482;54.396;18.590;2023-05-22T07:01:47;101978.75;;;17.21;60.68
48606;BME280;8482;54.396;18.590;2023-05-22T07:04:13;101973.00;;;17.26;60.44
48606;BME280;8482;54.396;18.590;2023-05-22T07:06:40;101970.63;;;17.33;60.21
48606;BME280;8482;54.396;18.590;2023-05-22T07:09:07;101968.25;;;17.39;59.84
48606;BME280;8482;54.396;18.590;2023-05-22T07:11:34;101964.03;;;17.46;59.54
48606;BME280;8482;54.396;18.590;2023-05-22T07:14:02;101955.44;;;17.53;59.23
48606;BME280;8482;54.396;18.590;2023-05-22T07:16:29;101956.41;;;17.61;59.12
48606;BME280;8482;54.396;18.590;2023-05-22T07:18:56;101963.78;;;17.69;59.18
48606;BME280;8482;54.396;18.590;2023-05-22T07:21:22;101960.41;;;17.77;59.14
48606;BME280;8482;54.396;18.590;2023-05-22T07:23:51;101955.22;;;17.85;59.09
48606;BME280;8482;54.396;18.590;2023-05-22T07:26:17;101965.09;;;17.95;58.92
48606;BME280;8482;54.396;18.590;2023-05-22T07:28:43;101964.53;;;18.01;58.81
48606;BME280;8482;54.396;18.590;2023-05-22T07:31:09;101960.31;;;18.08;58.36
48606;BME280;8482;54.396;18.590;2023-05-22T07:33:35;101962.31;;;18.16;58.08
48606;BME280;8482;54.396;18.590;2023-05-22T07:36:01;101960.63;;;18.25;57.95
48606;BME280;8482;54.396;18.590;2023-05-22T07:38:27;101957.34;;;18.31;57.89
48606;BME280;8482;54.396;18.590;2023-05-22T07:40:52;101957.63;;;18.37;57.89
48606;BME280;8482;54.396;18.590;2023-05-22T07:43:18;101957.06;;;18.44;57.51
48606;BME280;8482;54.396;18.590;2023-05-22T07:45:44;101958.88;;;18.53;57.48
48606;BME280;8482;54.396;18.590;2023-05-22T07:48:10;101952.22;;;18.57;57.55
48606;BME280;8482;54.396;18.590;2023-05-22T07:50:36;101951.91;;;18.70;57.84
48606;BME280;8482;54.396;18.590;2023-05-22T07:53:02;101942.69;;;18.73;57.51
48606;BME280;8482;54.396;18.590;2023-05-22T07:55:29;101951.28;;;18.86;57.58
48606;BME280;8482;54.396;18.590;2023-05-22T07:57:55;101952.41;;;18.93;57.52
48606;BME280;8482;54.396;18.590;2023-05-22T08:00:21;101948.28;;;18.99;56.97
48606;BME280;8482;54.396;18.590;2023-05-22T08:02:47;101950.94;;;19.09;56.62
48606;BME280;8482;54.396;18.590;2023-05-22T08:05:13;101951.03;;;19.17;56.28
48606;BME280;8482;54.396;18.590;2023-05-22T08:07:39;101955.53;;;19.26;56.08
48606;BME280;8482;54.396;18.590;2023-05-22T08:10:17;101956.47;;;19.35;55.99
48606;BME280;8482;54.396;18.590;2023-05-22T08:12:43;101955.19;;;19.39;55.88
48606;BME280;8482;54.396;18.590;2023-05-22T08:15:10;101953.72;;;19.45;55.78
48606;BME280;8482;54.396;18.590;2023-05-22T08:17:36;101955.13;;;19.49;55.51
48606;BME280;8482;54.396;18.590;2023-05-22T08:20:03;101953.81;;;19.53;55.01
48606;BME280;8482;54.396;18.590;2023-05-22T08:22:29;101957.91;;;19.57;54.18
48606;BME280;8482;54.396;18.590;2023-05-22T08:24:56;101954.16;;;19.68;53.75
48606;BME280;8482;54.396;18.590;2023-05-22T08:27:22;101958.38;;;19.71;53.53
48606;BME280;8482;54.396;18.590;2023-05-22T08:29:47;101961.16;;;19.79;52.89
48606;BME280;8482;54.396;18.590;2023-05-22T08:32:13;101965.53;;;19.80;52.54
48606;BME280;8482;54.396;18.590;2023-05-22T08:34:39;101963.84;;;19.79;52.32
48606;BME280;8482;54.396;18.590;2023-05-22T08:37:06;101955.94;;;19.78;52.09
48606;BME280;8482;54.396;18.590;2023-05-22T08:39:33;101955.53;;;19.72;51.54
48606;BME280;8482;54.396;18.590;2023-05-22T08:41:59;101951.84;;;19.73;51.53
48606;BME280;8482;54.396;18.590;2023-05-22T08:44:27;101961.84;;;19.81;51.64
48606;BME280;8482;54.396;18.590;2023-05-22T08:46:53;101956.78;;;19.78;51.62
48606;BME280;8482;54.396;18.590;2023-05-22T08:49:21;101957.47;;;19.80;51.33
48606;BME280;8482;54.396;18.590;2023-05-22T08:51:55;101956.47;;;19.81;50.82
48606;BME280;8482;54.396;18.590;2023-05-22T08:54:27;101958.31;;;19.81;50.56
48606;BME280;8482;54.396;18.590;2023-05-22T08:56:54;101954.63;;;19.82;50.48
48606;BME280;8482;54.396;18.590;2023-05-22T08:59:20;101949.78;;;19.85;50.46
48606;BME280;8482;54.396;18.590;2023-05-22T09:01:47;101955.72;;;19.89;50.01
48606;BME280;8482;54.396;18.590;2023-05-22T09:04:13;101946.34;;;19.93;49.65
48606;BME280;8482;54.396;18.590;2023-05-22T09:06:39;101952.28;;;19.97;49.71
48606;BME280;8482;54.396;18.590;2023-05-22T09:09:05;101951.97;;;20.00;50.19
48606;BME280;8482;54.396;18.590;2023-05-22T09:11:31;101948.50;;;20.08;50.28
48606;BME280;8482;54.396;18.590;2023-05-22T09:14:08;101945.19;;;20.14;50.21
48606;BME280;8482;54.396;18.590;2023-05-22T09:16:47;101946.75;;;20.16;49.95
48606;BME280;8482;54.396;18.590;2023-05-22T09:19:14;101937.97;;;20.14;50.04
48606;BME280;8482;54.396;18.590;2023-05-22T09:21:40;101945.41;;;20.20;50.14
48606;BME280;8482;54.396;18.590;2023-05-22T09:24:07;101947.09;;;20.21;49.65
48606;BME280;8482;54.396;18.590;2023-05-22T09:26:40;101936.78;;;20.17;49.48
48606;BME280;8482;54.396;18.590;2023-05-22T09:29:06;101937.66;;;20.17;50.23
48606;BME280;8482;54.396;18.590;2023-05-22T09:31:41;101941.00;;;20.19;49.68
48606;BME280;8482;54.396;18.590;2023-05-22T09:34:11;101931.25;;;20.18;49.72
48606;BME280;8482;54.396;18.590;2023-05-22T09:36:40;101939.00;;;20.21;49.41
48606;BME280;8482;54.396;18.590;2023-05-22T09:39:06;101933.94;;;20.18;49.41
48606;BME280;8482;54.396;18.590;2023-05-22T09:41:37;101936.31;;;20.21;49.94
48606;BME280;8482;54.396;18.590;2023-05-22T09:44:15;101937.00;;;20.24;49.97
48606;BME280;8482;54.396;18.590;2023-05-22T09:46:44;101940.56;;;20.24;49.90
48606;BME280;8482;54.396;18.590;2023-05-22T09:49:11;101943.56;;;20.21;49.77
48606;BME280;8482;54.396;18.590;2023-05-22T09:51:39;101925.19;;;20.16;50.00
48606;BME280;8482;54.396;18.590;2023-05-22T09:54:07;101933.63;;;20.21;49.95
48606;BME280;8482;54.396;18.590;2023-05-22T09:56:35;101929.56;;;20.17;49.76
48606;BME280;8482;54.396;18.590;2023-05-22T09:59:07;101931.09;;;20.20;49.58
48606;BME280;8482;54.396;18.590;2023-05-22T10:01:35;101921.50;;;20.17;49.59
48606;BME280;8482;54.396;18.590;2023-05-22T10:04:03;101918.81;;;20.17;49.48
48606;BME280;8482;54.396;18.590;2023-05-22T10:06:30;101927.41;;;20.21;49.48
48606;BME280;8482;54.396;18.590;2023-05-22T10:09:04;101916.31;;;20.24;50.07
48606;BME280;8482;54.396;18.590;2023-05-22T10:11:34;101918.00;;;20.25;50.32
48606;BME280;8482;54.396;18.590;2023-05-22T10:14:02;101908.47;;;20.31;50.29
48606;BME280;8482;54.396;18.590;2023-05-22T10:16:29;101915.50;;;20.32;50.15
48606;BME280;8482;54.396;18.590;2023-05-22T10:18:56;101906.81;;;20.38;50.21
48606;BME280;8482;54.396;18.590;2023-05-22T10:21:23;101913.59;;;20.42;49.43
48606;BME280;8482;54.396;18.590;2023-05-22T10:23:50;101916.41;;;20.41;49.22
48606;BME280;8482;54.396;18.590;2023-05-22T10:26:18;101916.28;;;20.42;49.35
48606;BME280;8482;54.396;18.590;2023-05-22T10:29:16;101911.72;;;20.43;49.30
48606;BME280;8482;54.396;18.590;2023-05-22T10:32:11;101904.72;;;20.50;49.83
48606;BME280;8482;54.396;18.590;2023-05-22T10:41:02;101900.56;;;20.64;50.66
48606;BME280;8482;54.396;18.590;2023-05-22T10:43:30;101904.78;;;20.66;51.13
48606;BME280;8482;54.396;18.590;2023-05-22T10:46:06;101904.31;;;20.71;51.27
48606;BME280;8482;54.396;18.590;2023-05-22T10:48:43;101906.41;;;20.77;50.66
48606;BME280;8482;54.396;18.590;2023-05-22T10:51:18;101902.69;;;20.78;50.59
48606;BME280;8482;54.396;18.590;2023-05-22T10:53:50;101900.38;;;20.84;50.79
48606;BME280;8482;54.396;18.590;2023-05-22T10:56:18;101890.94;;;20.88;50.84
48606;BME280;8482;54.396;18.590;2023-05-22T10:59:04;101892.50;;;20.98;50.75
48606;BME280;8482;54.396;18.590;2023-05-22T11:01:32;101894.22;;;21.08;50.25
48606;BME280;8482;54.396;18.590;2023-05-22T11:09:30;101896.63;;;21.19;48.96
48606;BME280;8482;54.396;18.590;2023-05-22T11:12:18;101882.97;;;21.21;48.21
48606;BME280;8482;54.396;18.590;2023-05-22T11:17:33;101883.34;;;21.34;48.68
48606;BME280;8482;54.396;18.590;2023-05-22T11:20:05;101881.34;;;21.44;48.38
48606;BME280;8482;54.396;18.590;2023-05-22T11:22:49;101881.56;;;21.59;47.66
48606;BME280;8482;54.396;18.590;2023-05-22T11:25:18;101875.81;;;21.71;46.67
48606;BME280;8482;54.396;18.590;2023-05-22T11:27:46;101872.97;;;21.81;46.04
48606;BME280;8482;54.396;18.590;2023-05-22T11:30:14;101867.41;;;21.91;45.31
48606;BME280;8482;54.396;18.590;2023-05-22T11:32:43;101862.31;;;22.04;44.57
48606;BME280;8482;54.396;18.590;2023-05-22T11:35:17;101863.47;;;22.18;43.62
48606;BME280;8482;54.396;18.590;2023-05-22T11:37:44;101864.66;;;22.24;43.26
48606;BME280;8482;54.396;18.590;2023-05-22T11:40:14;101860.41;;;22.38;42.86
48606;BME280;8482;54.396;18.590;2023-05-22T11:42:40;101864.81;;;22.47;42.45
48606;BME280;8482;54.396;18.590;2023-05-22T11:45:07;101867.13;;;22.58;41.87
48606;BME280;8482;54.396;18.590;2023-05-22T11:47:33;101860.03;;;22.65;41.24
48606;BME280;8482;54.396;18.590;2023-05-22T11:49:59;101869.13;;;22.73;40.71
48606;BME280;8482;54.396;18.590;2023-05-22T11:52:34;101858.63;;;22.78;40.37
48606;BME280;8482;54.396;18.590;2023-05-22T11:55:01;101854.50;;;22.90;40.19
48606;BME280;8482;54.396;18.590;2023-05-22T11:57:30;101865.13;;;23.00;39.70
48606;BME280;8482;54.396;18.590;2023-05-22T11:59:57;101859.84;;;23.07;38.75
48606;BME280;8482;54.396;18.590;2023-05-22T12:02:23;101859.78;;;23.15;38.45
48606;BME280;8482;54.396;18.590;2023-05-22T12:04:56;101858.94;;;23.23;38.22
48606;BME280;8482;54.396;18.590;2023-05-22T12:07:24;101851.78;;;23.30;37.85
48606;BME280;8482;54.396;18.590;2023-05-22T12:09:52;101850.59;;;23.33;37.69
48606;BME280;8482;54.396;18.590;2023-05-22T12:12:21;101849.19;;;23.37;36.98
48606;BME280;8482;54.396;18.590;2023-05-22T12:14:47;101851.66;;;23.47;36.63
48606;BME280;8482;54.396;18.590;2023-05-22T12:17:16;101851.63;;;23.55;35.88
48606;BME280;8482;54.396;18.590;2023-05-22T12:19:44;101842.44;;;23.56;35.95
48606;BME280;8482;54.396;18.590;2023-05-22T12:22:12;101832.47;;;23.56;35.91
48606;BME280;8482;54.396;18.590;2023-05-22T12:24:43;101835.22;;;23.71;35.66
48606;BME280;8482;54.396;18.590;2023-05-22T12:27:14;101834.97;;;23.81;35.59
48606;BME280;8482;54.396;18.590;2023-05-22T12:29:41;101844.69;;;23.91;35.26
48606;BME280;8482;54.396;18.590;2023-05-22T12:32:09;101840.94;;;24.00;35.04
48606;BME280;8482;54.396;18.590;2023-05-22T12:34:44;101832.63;;;24.16;34.65
48606;BME280;8482;54.396;18.590;2023-05-22T12:37:24;101834.41;;;24.24;34.69
48606;BME280;8482;54.396;18.590;2023-05-22T12:40:06;101835.63;;;24.37;34.69
48606;BME280;8482;54.396;18.590;2023-05-22T12:42:32;101827.22;;;24.46;34.83
48606;BME280;8482;54.396;18.590;2023-05-22T12:44:58;101824.41;;;24.55;34.57
48606;BME280;8482;54.396;18.590;2023-05-22T12:47:25;101831.06;;;24.67;34.47
48606;BME280;8482;54.396;18.590;2023-05-22T12:49:51;101830.78;;;24.77;34.07
48606;BME280;8482;54.396;18.590;2023-05-22T12:52:17;101820.41;;;24.81;33.71
48606;BME280;8482;54.396;18.590;2023-05-22T12:54:43;101821.97;;;24.90;33.44
48606;BME280;8482;54.396;18.590;2023-05-22T12:57:09;101828.13;;;24.99;33.36
48606;BME280;8482;54.396;18.590;2023-05-22T12:59:35;101826.00;;;25.16;33.04
48606;BME280;8482;54.396;18.590;2023-05-22T13:02:03;101798.72;;;25.24;32.95
48606;BME280;8482;54.396;18.590;2023-05-22T13:04:29;101812.72;;;25.43;32.04
48606;BME280;8482;54.396;18.590;2023-05-22T13:06:56;101810.25;;;25.48;32.33
48606;BME280;8482;54.396;18.590;2023-05-22T13:09:21;101804.31;;;25.59;32.03
48606;BME280;8482;54.396;18.590;2023-05-22T13:11:47;101812.75;;;25.71;31.95
48606;BME280;8482;54.396;18.590;2023-05-22T13:14:16;101802.16;;;25.76;31.31
48606;BME280;8482;54.396;18.590;2023-05-22T13:16:42;101806.97;;;25.81;31.16
48606;BME280;8482;54.396;18.590;2023-05-22T13:19:08;101810.34;;;25.83;31.10
48606;BME280;8482;54.396;18.590;2023-05-22T13:21:35;101805.50;;;25.78;31.17
48606;BME280;8482;54.396;18.590;2023-05-22T13:24:01;101803.66;;;25.85;31.03
48606;BME280;8482;54.396;18.590;2023-05-22T13:26:28;101800.34;;;25.90;31.00
48606;BME280;8482;54.396;18.590;2023-05-22T13:28:54;101804.38;;;25.94;30.71
48606;BME280;8482;54.396;18.590;2023-05-22T13:31:20;101793.22;;;25.89;30.60